sensor_id;sensor_type;location;lat;lon;timestamp;P1;durP1;ratioP1;P2;durP2;ratioP2
80179;SDS011;69505;52.134;5.438;2023-10-08T00:01:03;19.83;;;3.90;;
80179;SDS011;69505;52.134;5.438;2023-10-08T00:03:32;18.85;;;4.00;;
80179;SDS011;69505;52.134;5.438;2023-10-08T00:06:02;14.52;;;3.88;;
80179;SDS011;69505;52.134;5.438;2023-10-08T00:08:33;17.50;;;3.92;;
80179;SDS011;69505;52.134;5.438;2023-10-08T00:11:00;16.08;;;4.35;;
80179;SDS011;69505;52.134;5.438;2023-10-08T00:13:33;17.00;;;3.75;;
80179;SDS011;69505;52.134;5.438;2023-10-08T00:16:06;15.95;;;4.28;;
80179;SDS011;69505;52.134;5.438;2023-10-08T00:18:39;11.68;;;3.20;;
80179;SDS011;69505;52.134;5.438;2023-10-08T00:21:15;9.93;;;3.65;;
80179;SDS011;69505;52.134;5.438;2023-10-08T00:23:43;11.25;;;3.95;;
80179;SDS011;69505;52.134;5.438;2023-10-08T00:26:19;14.25;;;4.32;;
80179;SDS011;69505;52.134;5.438;2023-10-08T00:28:55;22.05;;;4.38;;
80179;SDS011;69505;52.134;5.438;2023-10-08T00:31:23;13.77;;;3.70;;
80179;SDS011;69505;52.134;5.438;2023-10-08T00:34:04;13.13;;;3.55;;
80179;SDS011;69505;52.134;5.438;2023-10-08T00:36:31;15.52;;;3.55;;
80179;SDS011;69505;52.134;5.438;2023-10-08T00:39:00;14.98;;;3.92;;
80179;SDS011;69505;52.134;5.438;2023-10-08T00:41:34;13.95;;;3.83;;
80179;SDS011;69505;52.134;5.438;2023-10-08T00:44:01;13.05;;;4.18;;
80179;SDS011;69505;52.134;5.438;2023-10-08T00:46:32;11.90;;;4.47;;
80179;SDS011;69505;52.134;5.438;2023-10-08T00:49:02;13.43;;;3.90;;
80179;SDS011;69505;52.134;5.438;2023-10-08T00:51:58;10.52;;;4.00;;
80179;SDS011;69505;52.134;5.438;2023-10-08T00:54:35;14.43;;;3.75;;
80179;SDS011;69505;52.134;5.438;2023-10-08T00:57:18;13.02;;;3.78;;
80179;SDS011;69505;52.134;5.438;2023-10-08T00:59:48;14.40;;;4.40;;
80179;SDS011;69505;52.134;5.438;2023-10-08T01:02:20;19.08;;;4.72;;
80179;SDS011;69505;52.134;5.438;2023-10-08T01:04:51;14.38;;;4.72;;
80179;SDS011;69505;52.134;5.438;2023-10-08T01:07:18;12.95;;;4.20;;
80179;SDS011;69505;52.134;5.438;2023-10-08T01:09:45;16.52;;;6.10;;
80179;SDS011;69505;52.134;5.438;2023-10-08T01:12:22;15.35;;;4.90;;
80179;SDS011;69505;52.134;5.438;2023-10-08T01:14:49;20.25;;;4.32;;
80179;SDS011;69505;52.134;5.438;2023-10-08T01:17:20;15.55;;;4.35;;
80179;SDS011;69505;52.134;5.438;2023-10-08T01:19:51;17.90;;;4.35;;
80179;SDS011;69505;52.134;5.438;2023-10-08T01:22:35;11.35;;;3.63;;
80179;SDS011;69505;52.134;5.438;2023-10-08T01:25:05;16.52;;;4.25;;
80179;SDS011;69505;52.134;5.438;2023-10-08T01:27:32;12.50;;;4.07;;
80179;SDS011;69505;52.134;5.438;2023-10-08T01:30:01;14.25;;;4.00;;
80179;SDS011;69505;52.134;5.438;2023-10-08T01:32:41;10.57;;;3.65;;
80179;SDS011;69505;52.134;5.438;2023-10-08T01:35:09;17.90;;;3.88;;
80179;SDS011;69505;52.134;5.438;2023-10-08T01:37:50;12.55;;;3.72;;
80179;SDS011;69505;52.134;5.438;2023-10-08T01:40:17;11.75;;;3.97;;
80179;SDS011;69505;52.134;5.438;2023-10-08T01:42:46;14.88;;;4.15;;
80179;SDS011;69505;52.134;5.438;2023-10-08T01:45:17;16.75;;;5.10;;
80179;SDS011;69505;52.134;5.438;2023-10-08T01:47:45;15.40;;;5.03;;
80179;SDS011;69505;52.134;5.438;2023-10-08T01:50:17;11.68;;;3.88;;
80179;SDS011;69505;52.134;5.438;2023-10-08T01:52:55;13.20;;;3.63;;
80179;SDS011;69505;52.134;5.438;2023-10-08T01:55:22;9.02;;;3.47;;
80179;SDS011;69505;52.134;5.438;2023-10-08T01:57:49;12.93;;;3.33;;
80179;SDS011;69505;52.134;5.438;2023-10-08T02:00:19;13.77;;;4.32;;
80179;SDS011;69505;52.134;5.438;2023-10-08T02:02:46;13.10;;;3.80;;
80179;SDS011;69505;52.134;5.438;2023-10-08T02:05:14;15.55;;;4.28;;
80179;SDS011;69505;52.134;5.438;2023-10-08T02:07:41;11.65;;;4.05;;
80179;SDS011;69505;52.134;5.438;2023-10-08T02:10:11;10.25;;;3.53;;
80179;SDS011;69505;52.134;5.438;2023-10-08T02:12:40;13.27;;;4.30;;
80179;SDS011;69505;52.134;5.438;2023-10-08T02:15:08;17.38;;;3.95;;
80179;SDS011;69505;52.134;5.438;2023-10-08T02:17:37;11.90;;;3.88;;
80179;SDS011;69505;52.134;5.438;2023-10-08T02:20:05;13.52;;;4.18;;
80179;SDS011;69505;52.134;5.438;2023-10-08T02:22:32;14.80;;;4.28;;
80179;SDS011;69505;52.134;5.438;2023-10-08T02:24:59;15.65;;;4.78;;
80179;SDS011;69505;52.134;5.438;2023-10-08T02:27:30;14.00;;;3.80;;
80179;SDS011;69505;52.134;5.438;2023-10-08T02:29:59;14.40;;;4.25;;
80179;SDS011;69505;52.134;5.438;2023-10-08T02:34:56;13.98;;;3.78;;
80179;SDS011;69505;52.134;5.438;2023-10-08T02:37:23;14.70;;;4.22;;
80179;SDS011;69505;52.134;5.438;2023-10-08T02:39:50;14.82;;;4.03;;
80179;SDS011;69505;52.134;5.438;2023-10-08T02:42:17;18.70;;;4.60;;
80179;SDS011;69505;52.134;5.438;2023-10-08T02:44:45;11.18;;;4.15;;
80179;SDS011;69505;52.134;5.438;2023-10-08T02:47:12;13.35;;;3.67;;
80179;SDS011;69505;52.134;5.438;2023-10-08T02:49:40;13.27;;;4.30;;
80179;SDS011;69505;52.134;5.438;2023-10-08T02:52:07;11.43;;;4.35;;
80179;SDS011;69505;52.134;5.438;2023-10-08T02:54:37;12.90;;;4.30;;
80179;SDS011;69505;52.134;5.438;2023-10-08T02:57:04;17.08;;;4.32;;
80179;SDS011;69505;52.134;5.438;2023-10-08T02:59:36;18.30;;;4.68;;
80179;SDS011;69505;52.134;5.438;2023-10-08T03:02:08;13.43;;;4.03;;
80179;SDS011;69505;52.134;5.438;2023-10-08T03:04:46;14.00;;;4.75;;
80179;SDS011;69505;52.134;5.438;2023-10-08T03:07:14;11.07;;;3.95;;
80179;SDS011;69505;52.134;5.438;2023-10-08T03:09:49;15.15;;;4.13;;
80179;SDS011;69505;52.134;5.438;2023-10-08T03:12:30;14.30;;;4.65;;
80179;SDS011;69505;52.134;5.438;2023-10-08T03:14:59;14.15;;;5.20;;
80179;SDS011;69505;52.134;5.438;2023-10-08T03:17:42;16.30;;;5.32;;
80179;SDS011;69505;52.134;5.438;2023-10-08T03:20:18;13.25;;;4.80;;
80179;SDS011;69505;52.134;5.438;2023-10-08T03:22:59;14.68;;;4.32;;
80179;SDS011;69505;52.134;5.438;2023-10-08T03:25:26;13.73;;;4.50;;
80179;SDS011;69505;52.134;5.438;2023-10-08T03:27:54;12.15;;;4.60;;
80179;SDS011;69505;52.134;5.438;2023-10-08T03:30:21;12.13;;;4.45;;
80179;SDS011;69505;52.134;5.438;2023-10-08T03:32:48;15.32;;;4.57;;
80179;SDS011;69505;52.134;5.438;2023-10-08T03:35:21;12.27;;;4.38;;
80179;SDS011;69505;52.134;5.438;2023-10-08T03:37:54;10.45;;;4.13;;
80179;SDS011;69505;52.134;5.438;2023-10-08T03:40:41;14.10;;;4.30;;
80179;SDS011;69505;52.134;5.438;2023-10-08T03:43:11;12.23;;;5.03;;
80179;SDS011;69505;52.134;5.438;2023-10-08T03:45:46;13.57;;;3.53;;
80179;SDS011;69505;52.134;5.438;2023-10-08T03:48:25;15.48;;;4.63;;
80179;SDS011;69505;52.134;5.438;2023-10-08T03:50:56;15.30;;;5.53;;
80179;SDS011;69505;52.134;5.438;2023-10-08T03:53:32;11.35;;;4.43;;
80179;SDS011;69505;52.134;5.438;2023-10-08T03:56:09;21.08;;;5.47;;
80179;SDS011;69505;52.134;5.438;2023-10-08T03:58:37;19.33;;;5.15;;
80179;SDS011;69505;52.134;5.438;2023-10-08T04:01:08;16.70;;;5.65;;
80179;SDS011;69505;52.134;5.438;2023-10-08T04:03:36;13.43;;;5.35;;
80179;SDS011;69505;52.134;5.438;2023-10-08T04:06:23;14.98;;;5.07;;
80179;SDS011;69505;52.134;5.438;2023-10-08T04:08:57;13.63;;;4.80;;
80179;SDS011;69505;52.134;5.438;2023-10-08T04:11:36;17.25;;;5.10;;
80179;SDS011;69505;52.134;5.438;2023-10-08T04:14:24;13.43;;;4.45;;
80179;SDS011;69505;52.134;5.438;2023-10-08T04:16:51;19.27;;;4.63;;
80179;SDS011;69505;52.134;5.438;2023-10-08T04:19:22;13.85;;;4.20;;
80179;SDS011;69505;52.134;5.438;2023-10-08T04:21:55;25.83;;;4.43;;
80179;SDS011;69505;52.134;5.438;2023-10-08T04:24:23;9.07;;;3.65;;
80179;SDS011;69505;52.134;5.438;2023-10-08T04:26:57;15.48;;;4.05;;
80179;SDS011;69505;52.134;5.438;2023-10-08T04:29:25;14.68;;;4.28;;
80179;SDS011;69505;52.134;5.438;2023-10-08T04:34:42;13.55;;;3.17;;
80179;SDS011;69505;52.134;5.438;2023-10-08T04:37:13;14.50;;;2.95;;
80179;SDS011;69505;52.134;5.438;2023-10-08T04:39:44;10.85;;;4.03;;
80179;SDS011;69505;52.134;5.438;2023-10-08T04:42:14;11.43;;;3.50;;
80179;SDS011;69505;52.134;5.438;2023-10-08T04:44:52;12.60;;;3.25;;
80179;SDS011;69505;52.134;5.438;2023-10-08T04:47:21;11.90;;;3.55;;
80179;SDS011;69505;52.134;5.438;2023-10-08T04:50:00;9.55;;;3.65;;
80179;SDS011;69505;52.134;5.438;2023-10-08T04:52:32;11.27;;;2.60;;
80179;SDS011;69505;52.134;5.438;2023-10-08T04:55:01;9.38;;;3.13;;
80179;SDS011;69505;52.134;5.438;2023-10-08T04:57:39;13.43;;;3.53;;
80179;SDS011;69505;52.134;5.438;2023-10-08T05:00:09;9.52;;;3.40;;
80179;SDS011;69505;52.134;5.438;2023-10-08T05:02:41;13.35;;;3.97;;
80179;SDS011;69505;52.134;5.438;2023-10-08T05:05:19;10.80;;;3.35;;
80179;SDS011;69505;52.134;5.438;2023-10-08T05:07:46;15.07;;;3.75;;
80179;SDS011;69505;52.134;5.438;2023-10-08T05:10:13;9.05;;;3.33;;
80179;SDS011;69505;52.134;5.438;2023-10-08T05:12:50;13.75;;;3.95;;
80179;SDS011;69505;52.134;5.438;2023-10-08T05:15:38;8.45;;;3.80;;
80179;SDS011;69505;52.134;5.438;2023-10-08T05:18:28;11.60;;;3.85;;
80179;SDS011;69505;52.134;5.438;2023-10-08T05:21:15;13.80;;;4.15;;
80179;SDS011;69505;52.134;5.438;2023-10-08T05:24:02;8.57;;;3.38;;
80179;SDS011;69505;52.134;5.438;2023-10-08T05:26:37;15.02;;;4.22;;
80179;SDS011;69505;52.134;5.438;2023-10-08T05:29:11;12.95;;;4.03;;
80179;SDS011;69505;52.134;5.438;2023-10-08T05:32:12;11.55;;;3.45;;
80179;SDS011;69505;52.134;5.438;2023-10-08T05:35:05;6.50;;;3.20;;
80179;SDS011;69505;52.134;5.438;2023-10-08T05:37:51;10.32;;;2.90;;
80179;SDS011;69505;52.134;5.438;2023-10-08T05:40:28;7.30;;;2.50;;
80179;SDS011;69505;52.134;5.438;2023-10-08T05:43:14;9.40;;;2.15;;
80179;SDS011;69505;52.134;5.438;2023-10-08T05:46:00;6.35;;;2.20;;
80179;SDS011;69505;52.134;5.438;2023-10-08T05:48:45;5.68;;;2.03;;
80179;SDS011;69505;52.134;5.438;2023-10-08T05:51:17;6.15;;;1.92;;
80179;SDS011;69505;52.134;5.438;2023-10-08T05:54:14;5.32;;;1.88;;
80179;SDS011;69505;52.134;5.438;2023-10-08T05:59:42;5.80;;;2.08;;
80179;SDS011;69505;52.134;5.438;2023-10-08T06:02:22;4.35;;;1.85;;
80179;SDS011;69505;52.134;5.438;2023-10-08T06:05:00;4.53;;;1.67;;
80179;SDS011;69505;52.134;5.438;2023-10-08T06:07:52;4.22;;;1.38;;
80179;SDS011;69505;52.134;5.438;2023-10-08T06:10:21;5.03;;;1.50;;
80179;SDS011;69505;52.134;5.438;2023-10-08T06:13:02;4.43;;;1.25;;
80179;SDS011;69505;52.134;5.438;2023-10-08T06:15:36;6.00;;;1.83;;
80179;SDS011;69505;52.134;5.438;2023-10-08T06:18:19;7.22;;;1.90;;
80179;SDS011;69505;52.134;5.438;2023-10-08T06:20:47;4.95;;;1.10;;
80179;SDS011;69505;52.134;5.438;2023-10-08T06:23:15;4.43;;;1.60;;
80179;SDS011;69505;52.134;5.438;2023-10-08T06:25:46;5.63;;;1.48;;
80179;SDS011;69505;52.134;5.438;2023-10-08T06:28:20;5.20;;;0.88;;
80179;SDS011;69505;52.134;5.438;2023-10-08T06:30:48;3.70;;;1.75;;
80179;SDS011;69505;52.134;5.438;2023-10-08T06:33:16;5.97;;;1.83;;
80179;SDS011;69505;52.134;5.438;2023-10-08T06:35:43;4.60;;;1.50;;
80179;SDS011;69505;52.134;5.438;2023-10-08T06:38:27;6.05;;;1.75;;
80179;SDS011;69505;52.134;5.438;2023-10-08T06:40:59;5.95;;;1.63;;
80179;SDS011;69505;52.134;5.438;2023-10-08T06:43:33;5.80;;;1.77;;
80179;SDS011;69505;52.134;5.438;2023-10-08T06:46:03;2.90;;;1.15;;
80179;SDS011;69505;52.134;5.438;2023-10-08T06:48:33;5.32;;;1.38;;
80179;SDS011;69505;52.134;5.438;2023-10-08T06:51:01;3.05;;;1.85;;
80179;SDS011;69505;52.134;5.438;2023-10-08T06:53:39;3.08;;;2.20;;
80179;SDS011;69505;52.134;5.438;2023-10-08T06:56:07;5.53;;;1.77;;
80179;SDS011;69505;52.134;5.438;2023-10-08T06:58:36;2.22;;;1.60;;
80179;SDS011;69505;52.134;5.438;2023-10-08T07:01:03;2.50;;;1.30;;
80179;SDS011;69505;52.134;5.438;2023-10-08T07:03:38;2.92;;;1.70;;
80179;SDS011;69505;52.134;5.438;2023-10-08T07:06:05;3.90;;;1.77;;
80179;SDS011;69505;52.134;5.438;2023-10-08T07:12:25;8.90;;;1.30;;
80179;SDS011;69505;52.134;5.438;2023-10-08T07:23:06;3.60;;;1.80;;
80179;SDS011;69505;52.134;5.438;2023-10-08T07:33:54;3.67;;;2.25;;
80179;SDS011;69505;52.134;5.438;2023-10-08T07:42:32;3.40;;;2.20;;
80179;SDS011;69505;52.134;5.438;2023-10-08T07:45:13;3.45;;;2.40;;
80179;SDS011;69505;52.134;5.438;2023-10-08T07:48:04;4.45;;;2.20;;
80179;SDS011;69505;52.134;5.438;2023-10-08T07:50:43;3.17;;;2.30;;
80179;SDS011;69505;52.134;5.438;2023-10-08T07:53:31;3.38;;;2.38;;
80179;SDS011;69505;52.134;5.438;2023-10-08T07:56:41;4.15;;;2.35;;
80179;SDS011;69505;52.134;5.438;2023-10-08T07:59:09;3.90;;;2.20;;
80179;SDS011;69505;52.134;5.438;2023-10-08T08:02:00;4.85;;;2.40;;
80179;SDS011;69505;52.134;5.438;2023-10-08T08:04:53;4.18;;;1.63;;
80179;SDS011;69505;52.134;5.438;2023-10-08T08:10:30;4.65;;;2.55;;
80179;SDS011;69505;52.134;5.438;2023-10-08T08:13:11;3.40;;;2.33;;
80179;SDS011;69505;52.134;5.438;2023-10-08T08:15:38;2.88;;;2.03;;
80179;SDS011;69505;52.134;5.438;2023-10-08T08:18:15;3.08;;;2.33;;
80179;SDS011;69505;52.134;5.438;2023-10-08T08:20:49;3.70;;;2.38;;
80179;SDS011;69505;52.134;5.438;2023-10-08T08:23:16;3.80;;;2.47;;
80179;SDS011;69505;52.134;5.438;2023-10-08T08:25:46;4.18;;;2.47;;
80179;SDS011;69505;52.134;5.438;2023-10-08T08:28:59;3.38;;;2.50;;
80179;SDS011;69505;52.134;5.438;2023-10-08T08:32:01;2.55;;;1.60;;
80179;SDS011;69505;52.134;5.438;2023-10-08T08:34:38;2.92;;;2.15;;
80179;SDS011;69505;52.134;5.438;2023-10-08T08:37:19;4.03;;;2.13;;
80179;SDS011;69505;52.134;5.438;2023-10-08T08:40:09;3.72;;;1.88;;
80179;SDS011;69505;52.134;5.438;2023-10-08T08:42:51;3.85;;;2.05;;
80179;SDS011;69505;52.134;5.438;2023-10-08T08:45:25;3.10;;;1.70;;
80179;SDS011;69505;52.134;5.438;2023-10-08T08:48:01;2.83;;;1.60;;
80179;SDS011;69505;52.134;5.438;2023-10-08T08:50:52;5.47;;;2.25;;
80179;SDS011;69505;52.134;5.438;2023-10-08T08:53:34;4.70;;;1.95;;
80179;SDS011;69505;52.134;5.438;2023-10-08T08:59:26;4.25;;;1.95;;
80179;SDS011;69505;52.134;5.438;2023-10-08T09:02:01;2.65;;;1.60;;
80179;SDS011;69505;52.134;5.438;2023-10-08T09:04:44;3.60;;;2.28;;
80179;SDS011;69505;52.134;5.438;2023-10-08T09:07:14;5.60;;;2.28;;
80179;SDS011;69505;52.134;5.438;2023-10-08T09:09:42;3.85;;;2.40;;
80179;SDS011;69505;52.134;5.438;2023-10-08T09:12:15;3.33;;;2.08;;
80179;SDS011;69505;52.134;5.438;2023-10-08T09:14:54;3.58;;;1.63;;
80179;SDS011;69505;52.134;5.438;2023-10-08T09:17:39;4.40;;;2.33;;
80179;SDS011;69505;52.134;5.438;2023-10-08T09:20:08;4.05;;;1.90;;
80179;SDS011;69505;52.134;5.438;2023-10-08T09:22:41;3.92;;;2.30;;
80179;SDS011;69505;52.134;5.438;2023-10-08T09:25:25;3.63;;;2.20;;
80179;SDS011;69505;52.134;5.438;2023-10-08T09:28:01;4.95;;;2.20;;
80179;SDS011;69505;52.134;5.438;2023-10-08T09:30:30;3.88;;;2.10;;
80179;SDS011;69505;52.134;5.438;2023-10-08T09:33:10;2.72;;;1.42;;
80179;SDS011;69505;52.134;5.438;2023-10-08T09:35:47;3.80;;;2.28;;
80179;SDS011;69505;52.134;5.438;2023-10-08T09:38:16;2.65;;;1.88;;
80179;SDS011;69505;52.134;5.438;2023-10-08T09:40:49;3.17;;;2.30;;
80179;SDS011;69505;52.134;5.438;2023-10-08T09:43:32;5.10;;;1.77;;
80179;SDS011;69505;52.134;5.438;2023-10-08T09:48:51;2.80;;;1.92;;
80179;SDS011;69505;52.134;5.438;2023-10-08T09:51:21;3.80;;;2.10;;
80179;SDS011;69505;52.134;5.438;2023-10-08T09:54:05;3.70;;;2.50;;
80179;SDS011;69505;52.134;5.438;2023-10-08T09:56:40;3.80;;;2.10;;
80179;SDS011;69505;52.134;5.438;2023-10-08T09:59:09;5.20;;;2.25;;
80179;SDS011;69505;52.134;5.438;2023-10-08T10:01:37;3.22;;;2.33;;
80179;SDS011;69505;52.134;5.438;2023-10-08T10:04:10;3.08;;;2.20;;
80179;SDS011;69505;52.134;5.438;2023-10-08T10:06:51;3.13;;;2.22;;
80179;SDS011;69505;52.134;5.438;2023-10-08T10:09:25;3.05;;;1.67;;
80179;SDS011;69505;52.134;5.438;2023-10-08T10:11:53;3.53;;;2.20;;
80179;SDS011;69505;52.134;5.438;2023-10-08T10:14:22;3.80;;;2.40;;
80179;SDS011;69505;52.134;5.438;2023-10-08T10:19:56;5.75;;;2.35;;
80179;SDS011;69505;52.134;5.438;2023-10-08T10:22:28;4.75;;;2.83;;
80179;SDS011;69505;52.134;5.438;2023-10-08T10:25:01;4.25;;;2.35;;
80179;SDS011;69505;52.134;5.438;2023-10-08T10:27:41;3.30;;;2.22;;
80179;SDS011;69505;52.134;5.438;2023-10-08T10:30:09;3.22;;;1.92;;
80179;SDS011;69505;52.134;5.438;2023-10-08T10:32:36;3.35;;;1.98;;
80179;SDS011;69505;52.134;5.438;2023-10-08T10:35:03;5.10;;;2.72;;
80179;SDS011;69505;52.134;5.438;2023-10-08T10:37:37;4.63;;;2.60;;
80179;SDS011;69505;52.134;5.438;2023-10-08T10:40:11;3.78;;;2.70;;
80179;SDS011;69505;52.134;5.438;2023-10-08T10:42:39;3.88;;;2.97;;
80179;SDS011;69505;52.134;5.438;2023-10-08T10:45:15;2.95;;;1.90;;
80179;SDS011;69505;52.134;5.438;2023-10-08T10:48:07;3.97;;;2.90;;
80179;SDS011;69505;52.134;5.438;2023-10-08T10:50:46;5.60;;;2.78;;
80179;SDS011;69505;52.134;5.438;2023-10-08T10:56:22;4.63;;;2.78;;
80179;SDS011;69505;52.134;5.438;2023-10-08T10:59:02;4.07;;;3.00;;
80179;SDS011;69505;52.134;5.438;2023-10-08T11:01:53;4.95;;;3.35;;
80179;SDS011;69505;52.134;5.438;2023-10-08T11:04:36;5.85;;;3.30;;
80179;SDS011;69505;52.134;5.438;2023-10-08T11:07:45;5.00;;;3.28;;
80179;SDS011;69505;52.134;5.438;2023-10-08T11:10:16;3.90;;;3.00;;
80179;SDS011;69505;52.134;5.438;2023-10-08T11:37:03;6.60;;;2.92;;
80179;SDS011;69505;52.134;5.438;2023-10-08T11:39:50;5.63;;;2.85;;
80179;SDS011;69505;52.134;5.438;2023-10-08T11:42:40;5.03;;;3.42;;
80179;SDS011;69505;52.134;5.438;2023-10-08T11:45:16;3.83;;;2.85;;
80179;SDS011;69505;52.134;5.438;2023-10-08T11:47:58;5.30;;;3.45;;
80179;SDS011;69505;52.134;5.438;2023-10-08T11:50:40;4.15;;;2.60;;
80179;SDS011;69505;52.134;5.438;2023-10-08T12:15:10;2.78;;;1.73;;
80179;SDS011;69505;52.134;5.438;2023-10-08T12:18:34;4.18;;;2.47;;
80179;SDS011;69505;52.134;5.438;2023-10-08T12:24:03;4.55;;;2.22;;
80179;SDS011;69505;52.134;5.438;2023-10-08T12:26:46;4.22;;;2.28;;
80179;SDS011;69505;52.134;5.438;2023-10-08T12:29:29;3.90;;;2.35;;
80179;SDS011;69505;52.134;5.438;2023-10-08T12:32:02;4.38;;;2.28;;
80179;SDS011;69505;52.134;5.438;2023-10-08T12:34:57;6.13;;;2.60;;
80179;SDS011;69505;52.134;5.438;2023-10-08T12:38:03;4.57;;;2.20;;
80179;SDS011;69505;52.134;5.438;2023-10-08T12:44:12;4.20;;;2.30;;
80179;SDS011;69505;52.134;5.438;2023-10-08T12:46:42;4.00;;;2.33;;
80179;SDS011;69505;52.134;5.438;2023-10-08T12:49:24;2.78;;;1.80;;
80179;SDS011;69505;52.134;5.438;2023-10-08T12:51:53;4.25;;;2.10;;
80179;SDS011;69505;52.134;5.438;2023-10-08T12:54:20;4.10;;;1.50;;
80179;SDS011;69505;52.134;5.438;2023-10-08T12:59:24;3.10;;;2.10;;
80179;SDS011;69505;52.134;5.438;2023-10-08T13:01:54;6.40;;;1.85;;
80179;SDS011;69505;52.134;5.438;2023-10-08T13:04:35;2.92;;;1.50;;
80179;SDS011;69505;52.134;5.438;2023-10-08T13:10:22;3.20;;;1.65;;
80179;SDS011;69505;52.134;5.438;2023-10-08T13:15:44;3.15;;;1.30;;
80179;SDS011;69505;52.134;5.438;2023-10-08T13:18:15;3.00;;;1.02;;
80179;SDS011;69505;52.134;5.438;2023-10-08T13:21:00;2.60;;;1.42;;
80179;SDS011;69505;52.134;5.438;2023-10-08T13:23:33;2.63;;;1.20;;
80179;SDS011;69505;52.134;5.438;2023-10-08T13:26:07;3.90;;;1.80;;
80179;SDS011;69505;52.134;5.438;2023-10-08T13:29:03;5.07;;;1.33;;
80179;SDS011;69505;52.134;5.438;2023-10-08T13:31:33;3.55;;;2.00;;
80179;SDS011;69505;52.134;5.438;2023-10-08T13:34:12;3.80;;;1.45;;
80179;SDS011;69505;52.134;5.438;2023-10-08T13:36:51;4.80;;;2.10;;
80179;SDS011;69505;52.134;5.438;2023-10-08T13:43:09;2.85;;;1.40;;
80179;SDS011;69505;52.134;5.438;2023-10-08T13:46:15;4.88;;;1.73;;
80179;SDS011;69505;52.134;5.438;2023-10-08T13:48:58;5.57;;;2.20;;
80179;SDS011;69505;52.134;5.438;2023-10-08T13:51:30;3.22;;;1.02;;
80179;SDS011;69505;52.134;5.438;2023-10-08T13:54:29;4.88;;;2.08;;
80179;SDS011;69505;52.134;5.438;2023-10-08T13:57:13;4.90;;;1.83;;
80179;SDS011;69505;52.134;5.438;2023-10-08T13:59:49;3.95;;;1.70;;
80179;SDS011;69505;52.134;5.438;2023-10-08T14:02:34;3.75;;;2.03;;
80179;SDS011;69505;52.134;5.438;2023-10-08T14:05:29;6.30;;;2.50;;
80179;SDS011;69505;52.134;5.438;2023-10-08T14:08:53;4.13;;;2.03;;
80179;SDS011;69505;52.134;5.438;2023-10-08T14:11:34;3.72;;;1.80;;
80179;SDS011;69505;52.134;5.438;2023-10-08T14:14:01;5.72;;;1.85;;
80179;SDS011;69505;52.134;5.438;2023-10-08T14:16:40;4.72;;;1.98;;
80179;SDS011;69505;52.134;5.438;2023-10-08T14:19:17;3.25;;;2.05;;
80179;SDS011;69505;52.134;5.438;2023-10-08T14:21:58;3.53;;;1.70;;
80179;SDS011;69505;52.134;5.438;2023-10-08T14:24:35;5.05;;;2.00;;
80179;SDS011;69505;52.134;5.438;2023-10-08T14:35:02;3.38;;;1.40;;
80179;SDS011;69505;52.134;5.438;2023-10-08T14:37:59;4.90;;;2.22;;
80179;SDS011;69505;52.134;5.438;2023-10-08T14:44:28;4.68;;;2.35;;
80179;SDS011;69505;52.134;5.438;2023-10-08T15:05:39;3.85;;;2.10;;
80179;SDS011;69505;52.134;5.438;2023-10-08T15:15:05;3.55;;;2.22;;
80179;SDS011;69505;52.134;5.438;2023-10-08T15:18:41;3.97;;;2.40;;
80179;SDS011;69505;52.134;5.438;2023-10-08T15:28:57;7.00;;;2.65;;
80179;SDS011;69505;52.134;5.438;2023-10-08T15:34:12;5.95;;;2.55;;
80179;SDS011;69505;52.134;5.438;2023-10-08T15:37:24;3.90;;;2.38;;
80179;SDS011;69505;52.134;5.438;2023-10-08T15:39:52;7.43;;;2.33;;
80179;SDS011;69505;52.134;5.438;2023-10-08T15:42:18;3.85;;;2.38;;
80179;SDS011;69505;52.134;5.438;2023-10-08T15:44:49;5.43;;;2.42;;
80179;SDS011;69505;52.134;5.438;2023-10-08T15:47:16;3.58;;;2.28;;
80179;SDS011;69505;52.134;5.438;2023-10-08T15:49:53;6.38;;;2.80;;
80179;SDS011;69505;52.134;5.438;2023-10-08T15:52:35;4.28;;;2.13;;
80179;SDS011;69505;52.134;5.438;2023-10-08T15:55:27;5.22;;;3.17;;
80179;SDS011;69505;52.134;5.438;2023-10-08T15:57:53;5.65;;;2.97;;
80179;SDS011;69505;52.134;5.438;2023-10-08T16:03:01;4.38;;;2.50;;
80179;SDS011;69505;52.134;5.438;2023-10-08T16:05:28;4.10;;;2.75;;
80179;SDS011;69505;52.134;5.438;2023-10-08T16:07:55;3.88;;;2.42;;
80179;SDS011;69505;52.134;5.438;2023-10-08T16:10:29;3.15;;;2.22;;
80179;SDS011;69505;52.134;5.438;2023-10-08T16:13:02;4.25;;;2.60;;
80179;SDS011;69505;52.134;5.438;2023-10-08T16:15:44;4.68;;;2.55;;
80179;SDS011;69505;52.134;5.438;2023-10-08T16:18:48;5.13;;;2.67;;
80179;SDS011;69505;52.134;5.438;2023-10-08T16:25:08;4.97;;;2.78;;
80179;SDS011;69505;52.134;5.438;2023-10-08T16:31:36;6.43;;;3.78;;
80179;SDS011;69505;52.134;5.438;2023-10-08T16:37:31;6.15;;;3.13;;
80179;SDS011;69505;52.134;5.438;2023-10-08T16:40:22;5.25;;;2.08;;
80179;SDS011;69505;52.134;5.438;2023-10-08T16:42:57;6.20;;;3.85;;
80179;SDS011;69505;52.134;5.438;2023-10-08T16:46:19;8.70;;;3.65;;
80179;SDS011;69505;52.134;5.438;2023-10-08T16:48:51;6.30;;;3.25;;
80179;SDS011;69505;52.134;5.438;2023-10-08T16:51:28;6.75;;;3.53;;
80179;SDS011;69505;52.134;5.438;2023-10-08T16:54:46;6.65;;;3.47;;
80179;SDS011;69505;52.134;5.438;2023-10-08T17:03:21;6.45;;;3.83;;
80179;SDS011;69505;52.134;5.438;2023-10-08T17:12:31;6.20;;;3.83;;
80179;SDS011;69505;52.134;5.438;2023-10-08T17:22:01;8.13;;;4.07;;
80179;SDS011;69505;52.134;5.438;2023-10-08T17:24:40;7.40;;;3.75;;
80179;SDS011;69505;52.134;5.438;2023-10-08T17:27:11;6.93;;;4.28;;
80179;SDS011;69505;52.134;5.438;2023-10-08T17:29:49;6.43;;;4.28;;
80179;SDS011;69505;52.134;5.438;2023-10-08T17:32:19;6.68;;;4.07;;
80179;SDS011;69505;52.134;5.438;2023-10-08T17:35:05;7.53;;;4.18;;
80179;SDS011;69505;52.134;5.438;2023-10-08T17:37:35;5.75;;;4.13;;
80179;SDS011;69505;52.134;5.438;2023-10-08T17:40:11;8.52;;;4.70;;
80179;SDS011;69505;52.134;5.438;2023-10-08T17:42:46;8.85;;;5.43;;
80179;SDS011;69505;52.134;5.438;2023-10-08T17:52:36;9.38;;;4.93;;
80179;SDS011;69505;52.134;5.438;2023-10-08T17:55:10;10.15;;;5.88;;
80179;SDS011;69505;52.134;5.438;2023-10-08T17:58:04;8.05;;;5.40;;
80179;SDS011;69505;52.134;5.438;2023-10-08T18:00:53;7.75;;;4.78;;
80179;SDS011;69505;52.134;5.438;2023-10-08T18:03:27;9.48;;;6.05;;
80179;SDS011;69505;52.134;5.438;2023-10-08T18:06:11;7.60;;;4.78;;
80179;SDS011;69505;52.134;5.438;2023-10-08T18:09:32;7.38;;;5.35;;
80179;SDS011;69505;52.134;5.438;2023-10-08T18:13:30;10.65;;;6.20;;
80179;SDS011;69505;52.134;5.438;2023-10-08T18:19:55;12.05;;;8.07;;
80179;SDS011;69505;52.134;5.438;2023-10-08T18:26:56;9.60;;;6.28;;
80179;SDS011;69505;52.134;5.438;2023-10-08T18:29:23;9.02;;;6.30;;
80179;SDS011;69505;52.134;5.438;2023-10-08T18:31:53;13.35;;;6.97;;
80179;SDS011;69505;52.134;5.438;2023-10-08T18:34:57;11.07;;;6.32;;
80179;SDS011;69505;52.134;5.438;2023-10-08T18:37:39;10.00;;;6.18;;
80179;SDS011;69505;52.134;5.438;2023-10-08T18:40:53;11.73;;;6.38;;
80179;SDS011;69505;52.134;5.438;2023-10-08T18:46:24;11.40;;;7.25;;
80179;SDS011;69505;52.134;5.438;2023-10-08T18:49:20;10.13;;;6.78;;
80179;SDS011;69505;52.134;5.438;2023-10-08T18:52:28;12.05;;;6.65;;
80179;SDS011;69505;52.134;5.438;2023-10-08T18:58:20;9.73;;;5.45;;
80179;SDS011;69505;52.134;5.438;2023-10-08T19:01:01;11.23;;;5.60;;
80179;SDS011;69505;52.134;5.438;2023-10-08T19:04:09;8.30;;;5.07;;
80179;SDS011;69505;52.134;5.438;2023-10-08T19:06:36;13.23;;;5.72;;
80179;SDS011;69505;52.134;5.438;2023-10-08T19:09:31;9.80;;;4.93;;
80179;SDS011;69505;52.134;5.438;2023-10-08T19:12:25;7.30;;;4.60;;
80179;SDS011;69505;52.134;5.438;2023-10-08T19:17:49;8.13;;;5.55;;
80179;SDS011;69505;52.134;5.438;2023-10-08T19:21:17;12.57;;;5.28;;
80179;SDS011;69505;52.134;5.438;2023-10-08T19:24:37;7.57;;;4.90;;